createdAt,value
2022-09-18T00:00:14.515Z,97.21
2022-09-18T00:01:19.726Z,97.16
2022-09-18T00:02:21.944Z,97.24
2022-09-18T00:03:25.059Z,97.54
2022-09-18T00:04:27.570Z,97.27
2022-09-18T00:05:30.606Z,97.42
2022-09-18T00:06:36.399Z,97.46
2022-09-18T00:07:39.548Z,97.72
2022-09-18T00:08:43.702Z,97.95
2022-09-18T00:09:47.242Z,98.26
2022-09-18T00:10:50.608Z,98.18
2022-09-18T00:11:55.561Z,98.12
2022-09-18T00:12:59.309Z,98.46
2022-09-18T00:14:02.346Z,98.75
2022-09-18T00:15:07.099Z,98.82
2022-09-18T00:16:12.298Z,98.60
2022-09-18T00:17:14.655Z,98.96
2022-09-18T00:18:17.702Z,99.05
2022-09-18T00:19:20.528Z,99.26
2022-09-18T00:20:23.562Z,99.16
2022-09-18T00:21:26.626Z,99.30
2022-09-18T00:22:29.667Z,99.30
2022-09-18T00:23:31.709Z,98.79
2022-09-18T00:24:34.737Z,98.87
2022-09-18T00:25:36.786Z,99.12
2022-09-18T00:26:41.853Z,98.82
2022-09-18T00:27:43.899Z,98.94
2022-09-18T00:28:47.360Z,98.97
2022-09-18T00:29:49.704Z,98.80
2022-09-18T00:30:54.634Z,98.28
2022-09-18T00:31:56.761Z,98.73
2022-09-18T00:32:59.891Z,98.50
2022-09-18T00:34:04.005Z,98.16
2022-09-18T00:35:08.020Z,98.11
2022-09-18T00:36:12.253Z,97.97
2022-09-18T00:37:15.439Z,97.52
2022-09-18T00:38:17.634Z,97.80
2022-09-18T00:39:20.681Z,97.65
2022-09-18T00:40:22.793Z,97.80
2022-09-18T00:41:28.517Z,97.36
2022-09-18T00:42:31.917Z,97.42
2022-09-18T00:43:37.357Z,97.25
2022-09-18T00:44:42.020Z,97.17
2022-09-18T00:45:47.478Z,96.88
2022-09-18T00:46:49.569Z,96.77
2022-09-18T00:47:53.720Z,96.37
2022-09-18T00:49:03.364Z,96.44
2022-09-18T00:50:12.340Z,96.12
2022-09-18T00:51:15.667Z,96.14
2022-09-18T00:52:21.218Z,95.94
2022-09-18T00:53:24.105Z,96.06
2022-09-18T00:54:30.154Z,95.52
2022-09-18T00:55:34.856Z,95.09
2022-09-18T00:56:38.871Z,95.25
2022-09-18T00:57:49.457Z,95.19
2022-09-18T00:58:52.571Z,95.07
2022-09-18T00:59:55.228Z,94.83
2022-09-18T01:01:02.369Z,95.15
2022-09-18T01:02:04.880Z,94.91
2022-09-18T01:03:08.085Z,94.71
2022-09-18T01:04:11.236Z,94.74
2022-09-18T01:05:17.522Z,94.96
2022-09-18T01:06:27.991Z,94.82
2022-09-18T01:07:42.909Z,94.60
2022-09-18T01:08:56.372Z,94.69
2022-09-18T01:10:12.188Z,95.01
2022-09-18T01:11:27.669Z,94.73
2022-09-18T01:12:39.055Z,94.88
2022-09-18T01:13:52.042Z,95.15
2022-09-18T01:15:04.881Z,95.22
2022-09-18T01:16:14.470Z,95.20
2022-09-18T01:17:27.149Z,95.38
2022-09-18T01:18:40.393Z,95.11
2022-09-18T01:20:21.549Z,95.44
2022-09-18T01:21:32.984Z,94.99
2022-09-18T01:22:51.508Z,95.39
2022-09-18T01:24:28.400Z,95.55
2022-09-18T01:25:38.844Z,95.23
2022-09-18T01:26:51.238Z,95.31
2022-09-18T01:28:11.831Z,95.29
2022-09-18T01:29:22.177Z,95.26
2022-09-18T01:30:24.918Z,94.98
2022-09-18T01:31:32.580Z,95.08
2022-09-18T01:32:41.485Z,94.97
2022-09-18T01:33:51.247Z,94.97
2022-09-18T01:35:00.047Z,94.79
2022-09-18T01:36:08.593Z,94.91
2022-09-18T01:37:17.457Z,94.81
2022-09-18T01:38:25.003Z,94.54
2022-09-18T01:39:34.638Z,94.58
2022-09-18T01:40:41.005Z,94.46
2022-09-18T01:41:50.899Z,94.67
2022-09-18T01:43:01.608Z,94.58
2022-09-18T01:44:09.153Z,94.46
2022-09-18T01:45:17.287Z,94.46
2022-09-18T01:46:20.841Z,94.37
2022-09-18T01:47:28.976Z,94.38
2022-09-18T01:48:34.031Z,94.48
2022-09-18T01:49:42.794Z,94.19
2022-09-18T01:50:53.188Z,94.41
2022-09-18T01:52:01.384Z,94.04
2022-09-18T01:53:11.197Z,94.34
2022-09-18T01:54:16.238Z,94.15
2022-09-18T01:55:23.713Z,94.30
2022-09-18T01:56:27.447Z,94.71
2022-09-18T01:57:37.608Z,94.52
2022-09-18T01:58:42.471Z,94.74
2022-09-18T01:59:48.061Z,94.60
2022-09-18T02:00:55.431Z,94.51
2022-09-18T02:02:03.508Z,94.83
2022-09-18T02:03:11.837Z,94.94
2022-09-18T02:04:22.071Z,94.98
2022-09-18T02:05:28.919Z,94.83
2022-09-18T02:06:36.377Z,94.95
2022-09-18T02:07:48.600Z,94.93
2022-09-18T02:08:54.308Z,95.33
2022-09-18T02:09:59.615Z,95.48
2022-09-18T02:11:07.155Z,95.78
2022-09-18T02:12:15.880Z,96.09
2022-09-18T02:13:23.996Z,95.79
2022-09-18T02:14:32.917Z,96.30
2022-09-18T02:16:08.473Z,96.27
2022-09-18T02:17:17.452Z,96.61
2022-09-18T02:18:27.285Z,96.45
2022-09-18T02:19:35.633Z,96.69
2022-09-18T02:20:42.419Z,96.75
2022-09-18T02:21:47.290Z,97.15
2022-09-18T02:22:53.937Z,97.28
2022-09-18T02:24:03.357Z,97.29
2022-09-18T02:25:13.125Z,96.92
2022-09-18T02:26:19.555Z,97.22
2022-09-18T02:27:24.873Z,97.50
2022-09-18T02:28:31.249Z,97.43
2022-09-18T02:29:37.277Z,97.48
2022-09-18T02:30:40.949Z,97.48
2022-09-18T02:31:43.517Z,97.13
2022-09-18T02:32:46.874Z,97.21
2022-09-18T02:33:49.376Z,97.55
2022-09-18T02:34:52.502Z,97.57
2022-09-18T02:36:08.261Z,97.57
2022-09-18T02:37:34.290Z,97.35
2022-09-18T02:38:44.438Z,97.63
2022-09-18T02:40:00.268Z,97.49
2022-09-18T02:41:12.112Z,97.58
2022-09-18T02:42:27.988Z,97.69
2022-09-18T02:43:40.483Z,97.49
2022-09-18T02:44:52.065Z,97.68
2022-09-18T02:46:01.451Z,97.69
2022-09-18T02:47:14.715Z,97.84
2022-09-18T02:48:31.699Z,97.24
2022-09-18T02:49:46.217Z,97.20
2022-09-18T02:50:56.506Z,97.47
2022-09-18T02:52:06.149Z,97.38
2022-09-18T02:53:13.870Z,97.25
2022-09-18T02:54:25.449Z,97.33
2022-09-18T02:55:37.680Z,97.10
2022-09-18T02:56:45.100Z,97.16
2022-09-18T02:57:49.822Z,96.91
2022-09-18T02:58:56.541Z,97.14
2022-09-18T03:00:03.883Z,97.17
2022-09-18T03:01:09.438Z,96.86
2022-09-18T03:02:12.874Z,96.82
2022-09-18T03:03:18.542Z,96.75
2022-09-18T03:04:28.445Z,96.67
2022-09-18T03:05:39.988Z,96.78
2022-09-18T03:06:42.171Z,96.58
2022-09-18T03:07:45.351Z,96.50
2022-09-18T03:08:47.380Z,96.78
2022-09-18T03:09:50.553Z,96.56
2022-09-18T03:10:52.685Z,96.16
2022-09-18T03:11:55.979Z,96.74
2022-09-18T03:12:58.234Z,96.65
2022-09-18T03:14:01.701Z,96.52
2022-09-18T03:15:06.268Z,96.25
2022-09-18T03:16:10.919Z,96.32
2022-09-18T03:17:13.048Z,97.10
2022-09-18T03:18:16.126Z,97.04
2022-09-18T03:19:18.562Z,96.75
2022-09-18T03:20:21.759Z,97.11
2022-09-18T03:21:24.449Z,97.21
2022-09-18T03:22:27.568Z,97.34
2022-09-18T03:23:29.612Z,97.02
2022-09-18T03:24:48.092Z,97.47
2022-09-18T03:25:52.211Z,97.40
2022-09-18T03:26:55.650Z,97.46
2022-09-18T03:28:00.328Z,97.71
2022-09-18T03:29:15.284Z,97.91
2022-09-18T03:30:19.693Z,98.04
2022-09-18T03:31:25.436Z,97.72
2022-09-18T03:32:27.572Z,97.99
2022-09-18T03:33:30.619Z,97.93
2022-09-18T03:34:32.660Z,98.52
2022-09-18T03:35:35.715Z,98.34
2022-09-18T03:36:39.405Z,98.75
2022-09-18T03:37:42.410Z,98.55
2022-09-18T03:38:47.156Z,98.58
2022-09-18T03:39:49.324Z,98.91
2022-09-18T03:40:52.362Z,98.83
2022-09-18T03:41:54.420Z,98.91
2022-09-18T03:42:57.649Z,98.77
2022-09-18T03:44:00.319Z,99.10
2022-09-18T03:45:03.418Z,99.18
2022-09-18T03:46:07.363Z,99.08
2022-09-18T03:47:10.626Z,98.75
2022-09-18T03:48:12.667Z,99.13
2022-09-18T03:49:15.743Z,99.25
2022-09-18T03:50:18.508Z,99.14
2022-09-18T03:51:22.299Z,98.80
2022-09-18T03:52:24.436Z,99.18
2022-09-18T03:53:35.960Z,99.19
2022-09-18T03:55:01.035Z,99.12
2022-09-18T03:56:23.122Z,98.91
2022-09-18T03:57:48.433Z,98.95
2022-09-18T03:59:11.117Z,99.04
2022-09-18T04:00:25.627Z,99.15
2022-09-18T04:01:35.200Z,99.37
2022-09-18T04:02:55.893Z,99.10
2022-09-18T04:04:19.307Z,99.10
2022-09-18T04:05:41.655Z,98.94
2022-09-18T04:07:10.949Z,98.92
2022-09-18T04:08:21.933Z,98.98
2022-09-18T04:09:51.076Z,98.52
2022-09-18T04:10:53.487Z,98.27
2022-09-18T04:11:56.562Z,98.34
2022-09-18T04:12:58.667Z,98.65
2022-09-18T04:14:07.102Z,98.22
2022-09-18T04:15:10.269Z,98.41
2022-09-18T04:16:13.381Z,98.46
2022-09-18T04:17:16.931Z,97.91
2022-09-18T04:18:20.062Z,98.12
2022-09-18T04:19:22.240Z,97.96
2022-09-18T04:20:26.023Z,97.71
2022-09-18T04:21:28.241Z,97.90
2022-09-18T04:22:31.307Z,97.79
2022-09-18T04:23:33.290Z,97.63
2022-09-18T04:24:36.473Z,97.36
2022-09-18T04:25:40.094Z,97.47
2022-09-18T04:26:43.174Z,97.74
2022-09-18T04:27:46.188Z,97.64
2022-09-18T04:28:49.547Z,97.96
2022-09-18T04:29:54.594Z,97.85
2022-09-18T04:30:59.284Z,98.35
2022-09-18T04:32:01.700Z,98.86
2022-09-18T04:33:08.020Z,98.91
2022-09-18T04:34:10.233Z,98.83
2022-09-18T04:35:13.732Z,98.62
2022-09-18T04:36:17.549Z,98.77
2022-09-18T04:37:21.455Z,99.22
2022-09-18T04:38:27.770Z,99.32
2022-09-18T04:39:32.730Z,99.43
2022-09-18T04:40:38.121Z,99.63
2022-09-18T04:41:41.203Z,99.70
2022-09-18T04:42:43.300Z,100.00
2022-09-18T04:43:46.494Z,99.83
2022-09-18T04:44:49.724Z,100.00
2022-09-18T04:45:52.865Z,99.74
2022-09-18T04:46:55.180Z,100.00
2022-09-18T04:47:58.287Z,100.00
2022-09-18T04:49:02.482Z,100.00
2022-09-18T04:50:08.853Z,100.00
2022-09-18T04:51:10.915Z,100.00
2022-09-18T04:52:32.802Z,100.00
2022-09-18T04:53:38.033Z,100.00
2022-09-18T04:54:42.129Z,100.00
2022-09-18T04:55:45.855Z,100.00
2022-09-18T04:56:49.900Z,100.00
2022-09-18T04:57:54.623Z,100.00
2022-09-18T04:58:59.996Z,100.00
2022-09-18T05:00:02.655Z,100.00
2022-09-18T05:01:06.226Z,100.00
2022-09-18T05:02:08.479Z,100.00
2022-09-18T05:03:12.377Z,100.00
2022-09-18T05:04:17.760Z,100.00
2022-09-18T05:05:29.420Z,100.00
2022-09-18T05:06:31.972Z,100.00
2022-09-18T05:07:36.623Z,100.00
2022-09-18T05:08:38.714Z,100.00
2022-09-18T05:09:43.004Z,100.00
2022-09-18T05:10:45.307Z,100.00
2022-09-18T05:11:49.310Z,100.00
2022-09-18T05:12:52.686Z,100.00
2022-09-18T05:13:57.009Z,100.00
2022-09-18T05:15:01.034Z,100.00
2022-09-18T05:16:04.843Z,100.00
2022-09-18T05:17:06.981Z,100.00
2022-09-18T05:18:23.122Z,100.00
2022-09-18T05:19:30.438Z,100.00
2022-09-18T05:20:41.900Z,100.00
2022-09-18T05:21:44.656Z,100.00
2022-09-18T05:22:48.436Z,100.00
2022-09-18T05:23:55.865Z,100.00
2022-09-18T05:24:58.933Z,100.00
2022-09-18T05:26:01.038Z,100.00
2022-09-18T05:27:04.765Z,100.00
2022-09-18T05:28:06.864Z,100.00
2022-09-18T05:29:21.464Z,100.00
2022-09-18T05:30:27.217Z,100.00
2022-09-18T05:31:33.728Z,100.00
2022-09-18T05:32:36.284Z,100.00
2022-09-18T05:33:41.269Z,100.00
2022-09-18T05:34:44.799Z,100.00
2022-09-18T05:35:47.936Z,100.00
2022-09-18T05:36:50.030Z,100.00
2022-09-18T05:37:54.098Z,100.00
2022-09-18T05:38:56.127Z,100.00
2022-09-18T05:40:00.552Z,100.00
2022-09-18T05:41:03.501Z,100.00
2022-09-18T05:42:07.130Z,100.00
2022-09-18T05:43:09.389Z,100.00
2022-09-18T05:44:13.104Z,100.00
2022-09-18T05:45:15.519Z,100.00
2022-09-18T05:46:18.907Z,100.00
2022-09-18T05:47:36.203Z,100.00
2022-09-18T05:48:39.859Z,100.00
2022-09-18T05:49:42.224Z,100.00
2022-09-18T05:50:46.807Z,100.00
2022-09-18T05:51:51.274Z,100.00
2022-09-18T05:53:03.866Z,100.00
2022-09-18T05:54:15.648Z,100.00
2022-09-18T05:55:22.396Z,100.00
2022-09-18T05:56:26.150Z,100.00
2022-09-18T05:57:30.034Z,100.00
2022-09-18T05:58:34.230Z,100.00
2022-09-18T05:59:36.899Z,100.00
2022-09-18T06:00:40.362Z,100.00
2022-09-18T06:01:48.021Z,100.00
2022-09-18T06:02:54.675Z,100.00
2022-09-18T06:03:59.511Z,100.00
2022-09-18T06:05:04.345Z,100.00
2022-09-18T06:06:09.390Z,100.00
2022-09-18T06:07:13.071Z,100.00
2022-09-18T06:08:16.069Z,100.00
2022-09-18T06:09:18.768Z,100.00
2022-09-18T06:10:23.306Z,100.00
2022-09-18T06:11:25.621Z,100.00
2022-09-18T06:12:28.678Z,100.00
2022-09-18T06:13:30.710Z,100.00
2022-09-18T06:14:33.759Z,100.00
2022-09-18T06:15:36.719Z,100.00
2022-09-18T06:16:42.441Z,100.00
2022-09-18T06:17:52.041Z,100.00
2022-09-18T06:18:55.250Z,100.00
2022-09-18T06:19:59.355Z,100.00
2022-09-18T06:21:02.449Z,100.00
2022-09-18T06:22:07.548Z,100.00
2022-09-18T06:23:11.697Z,100.00
2022-09-18T06:24:25.129Z,100.00
2022-09-18T06:25:48.679Z,100.00
2022-09-18T06:26:52.283Z,100.00
2022-09-18T06:27:58.781Z,100.00
2022-09-18T06:29:01.153Z,100.00
2022-09-18T06:30:10.065Z,100.00
2022-09-18T06:31:13.088Z,100.00
2022-09-18T06:32:30.877Z,100.00
2022-09-18T06:33:35.777Z,100.00
2022-09-18T06:34:38.872Z,100.00
2022-09-18T06:35:43.610Z,100.00
2022-09-18T06:36:46.324Z,100.00
2022-09-18T06:38:03.934Z,100.00
2022-09-18T06:39:32.010Z,100.00
2022-09-18T06:40:36.171Z,100.00
2022-09-18T06:41:50.284Z,100.00
2022-09-18T06:43:03.789Z,100.00
2022-09-18T06:44:32.859Z,100.00
2022-09-18T06:45:39.365Z,100.00
2022-09-18T06:46:42.546Z,100.00
2022-09-18T06:47:54.282Z,100.00
2022-09-18T06:48:57.819Z,100.00
2022-09-18T06:50:00.927Z,100.00
2022-09-18T06:51:04.399Z,100.00
2022-09-18T06:52:16.729Z,100.00
2022-09-18T06:53:21.290Z,100.00
2022-09-18T06:54:27.717Z,100.00
2022-09-18T06:55:32.404Z,100.00
2022-09-18T06:56:35.331Z,100.00
2022-09-18T06:57:38.563Z,100.00
2022-09-18T06:58:40.791Z,100.00
2022-09-18T06:59:43.815Z,100.00
2022-09-18T07:00:47.319Z,100.00
2022-09-18T07:01:57.968Z,100.00
2022-09-18T07:03:21.341Z,100.00
2022-09-18T07:04:56.602Z,100.00
2022-09-18T07:05:58.701Z,100.00
2022-09-18T07:08:04.873Z,100.00
2022-09-18T07:09:12.649Z,100.00
2022-09-18T07:10:38.659Z,100.00
2022-09-18T07:11:40.967Z,100.00
2022-09-18T07:12:48.318Z,100.00
2022-09-18T07:13:54.226Z,100.00
2022-09-18T07:14:56.583Z,100.00
2022-09-18T07:16:01.935Z,100.00
2022-09-18T07:17:04.085Z,100.00
2022-09-18T07:18:08.118Z,100.00
2022-09-18T07:19:10.302Z,100.00
2022-09-18T07:20:15.036Z,100.00
2022-09-18T07:21:18.743Z,100.00
2022-09-18T07:22:21.821Z,100.00
2022-09-18T07:23:24.310Z,100.00
2022-09-18T07:24:31.122Z,100.00
2022-09-18T07:25:33.950Z,100.00
2022-09-18T07:26:37.546Z,100.00
2022-09-18T07:27:40.623Z,100.00
2022-09-18T07:28:43.624Z,99.61
2022-09-18T07:30:04.130Z,99.72
2022-09-18T07:31:07.799Z,99.55
2022-09-18T07:32:11.786Z,99.55
2022-09-18T07:33:13.893Z,99.59
2022-09-18T07:34:22.571Z,99.34
2022-09-18T07:35:24.688Z,99.52
2022-09-18T07:36:28.035Z,99.61
2022-09-18T07:37:30.161Z,99.19
2022-09-18T07:38:50.652Z,99.23
2022-09-18T07:39:55.402Z,99.22
2022-09-18T07:41:18.747Z,99.59
2022-09-18T07:42:20.906Z,99.17
2022-09-18T07:43:27.661Z,99.43
2022-09-18T07:44:31.965Z,99.22
2022-09-18T07:45:36.088Z,99.01
2022-09-18T07:46:38.387Z,99.27
2022-09-18T07:47:43.678Z,98.86
2022-09-18T07:48:46.364Z,98.82
2022-09-18T07:49:57.376Z,98.68
2022-09-18T07:51:00.077Z,98.67
2022-09-18T07:52:03.360Z,98.47
2022-09-18T07:53:09.075Z,98.48
2022-09-18T07:54:14.692Z,98.38
2022-09-18T07:55:28.623Z,97.73
2022-09-18T07:56:32.809Z,97.71
2022-09-18T07:57:35.078Z,97.86
2022-09-18T07:58:56.622Z,97.73
2022-09-18T08:00:03.494Z,97.61
2022-09-18T08:01:08.237Z,97.74
2022-09-18T08:02:18.448Z,97.64
2022-09-18T08:03:20.584Z,97.41
2022-09-18T08:04:39.159Z,96.98
2022-09-18T08:05:55.313Z,96.11
2022-09-18T08:07:03.537Z,95.45
2022-09-18T08:08:25.523Z,94.65
2022-09-18T08:09:39.012Z,94.48
2022-09-18T08:11:03.302Z,94.18
2022-09-18T08:12:41.986Z,94.15
2022-09-18T08:13:58.448Z,94.29
2022-09-18T08:15:11.303Z,94.31
2022-09-18T08:16:42.198Z,94.80
2022-09-18T08:18:05.529Z,94.54
2022-09-18T08:19:24.553Z,95.01
2022-09-18T08:20:34.500Z,94.97
2022-09-18T08:21:53.171Z,94.29
2022-09-18T08:22:58.393Z,93.43
2022-09-18T08:24:03.212Z,93.73
2022-09-18T08:25:07.180Z,93.67
2022-09-18T08:26:11.598Z,94.01
2022-09-18T08:27:14.674Z,93.39
2022-09-18T08:28:16.750Z,93.19
2022-09-18T08:29:26.421Z,92.39
2022-09-18T08:30:35.712Z,92.15
2022-09-18T08:31:42.269Z,91.83
2022-09-18T08:32:45.684Z,91.57
2022-09-18T08:33:48.840Z,91.40
2022-09-18T08:34:51.020Z,91.73
2022-09-18T08:35:55.408Z,91.49
2022-09-18T08:37:03.310Z,91.75
2022-09-18T08:38:24.152Z,91.85
2022-09-18T08:39:50.110Z,91.57
2022-09-18T08:41:15.038Z,91.56
2022-09-18T08:42:28.880Z,91.61
2022-09-18T08:43:48.158Z,91.17
2022-09-18T08:44:56.942Z,91.60
2022-09-18T08:46:02.894Z,91.40
2022-09-18T08:47:11.294Z,91.47
2022-09-18T08:48:17.803Z,91.46
2022-09-18T08:49:25.876Z,91.60
2022-09-18T08:50:38.344Z,91.39
2022-09-18T08:51:52.317Z,91.16
2022-09-18T08:53:03.513Z,90.29
2022-09-18T08:54:40.824Z,88.86
2022-09-18T08:56:22.513Z,86.48
2022-09-18T08:57:57.810Z,86.80
2022-09-18T08:59:11.316Z,85.72
2022-09-18T09:00:20.323Z,84.68
2022-09-18T09:01:40.477Z,84.17
2022-09-18T09:02:49.313Z,81.85
2022-09-18T09:03:59.436Z,81.83
2022-09-18T09:05:08.306Z,81.80
2022-09-18T09:06:28.957Z,81.92
2022-09-18T09:07:55.124Z,81.36
2022-09-18T09:09:14.908Z,82.01
2022-09-18T09:10:36.097Z,82.13
2022-09-18T09:11:48.258Z,82.06
2022-09-18T09:13:06.680Z,82.50
2022-09-18T09:14:45.832Z,82.38
2022-09-18T09:15:55.455Z,82.95
2022-09-18T09:17:05.899Z,83.05
2022-09-18T09:18:16.956Z,83.36
2022-09-18T09:19:28.803Z,83.33
2022-09-18T09:20:45.602Z,83.25
2022-09-18T09:21:55.255Z,83.30
2022-09-18T09:23:04.256Z,83.43
2022-09-18T09:24:25.693Z,83.51
2022-09-18T09:25:47.177Z,83.09
2022-09-18T09:27:23.371Z,83.22
2022-09-18T09:28:59.368Z,83.98
2022-09-18T09:30:22.034Z,83.83
2022-09-18T09:31:48.308Z,84.41
2022-09-18T09:33:08.207Z,84.58
2022-09-18T09:34:21.851Z,84.68
2022-09-18T09:35:36.410Z,85.24
2022-09-18T09:36:49.784Z,85.90
2022-09-18T09:37:53.855Z,86.46
2022-09-18T09:39:03.497Z,86.65
2022-09-18T09:40:14.642Z,87.47
2022-09-18T09:41:25.669Z,87.78
2022-09-18T09:42:33.602Z,88.59
2022-09-18T09:43:45.041Z,88.45
2022-09-18T09:44:54.226Z,88.46
2022-09-18T09:46:01.334Z,88.81
2022-09-18T09:47:16.600Z,88.88
2022-09-18T09:48:29.142Z,88.15
2022-09-18T09:49:35.251Z,87.90
2022-09-18T09:50:47.881Z,87.45
2022-09-18T09:51:58.016Z,87.09
2022-09-18T09:53:05.635Z,86.81
2022-09-18T09:54:10.424Z,87.17
2022-09-18T09:55:22.845Z,87.17
2022-09-18T09:56:33.238Z,87.04
2022-09-18T09:57:45.293Z,86.99
2022-09-18T09:58:56.176Z,86.81
2022-09-18T10:00:09.234Z,87.12
2022-09-18T10:01:36.984Z,87.12
2022-09-18T10:02:57.200Z,87.19
2022-09-18T10:04:19.260Z,87.54
2022-09-18T10:05:28.985Z,87.37
2022-09-18T10:06:42.650Z,87.30
2022-09-18T10:07:50.686Z,86.83
2022-09-18T10:09:02.417Z,87.00
2022-09-18T10:10:16.218Z,86.79
2022-09-18T10:11:19.516Z,86.72
2022-09-18T10:12:33.823Z,86.44
2022-09-18T10:13:42.777Z,86.20
2022-09-18T10:14:47.469Z,85.28
2022-09-18T10:15:59.128Z,85.35
2022-09-18T10:17:05.933Z,84.85
2022-09-18T10:18:16.627Z,84.37
2022-09-18T10:19:23.212Z,83.98
2022-09-18T10:20:27.666Z,83.55
2022-09-18T10:21:36.067Z,83.18
2022-09-18T10:22:42.894Z,82.66
2022-09-18T10:23:50.789Z,82.03
2022-09-18T10:25:02.896Z,81.94
2022-09-18T10:26:10.205Z,81.78
2022-09-18T10:27:15.541Z,81.53
2022-09-18T10:28:18.488Z,81.45
2022-09-18T10:29:23.181Z,81.15
2022-09-18T10:30:29.432Z,80.16
2022-09-18T10:31:50.316Z,79.47
2022-09-18T10:32:54.810Z,79.39
2022-09-18T10:34:26.204Z,78.88
2022-09-18T10:35:44.482Z,78.57
2022-09-18T10:36:49.509Z,78.64
2022-09-18T10:37:54.059Z,78.85
2022-09-18T10:39:18.715Z,78.46
2022-09-18T10:40:30.553Z,78.79
2022-09-18T10:41:37.995Z,79.38
2022-09-18T10:42:43.039Z,79.88
2022-09-18T10:44:04.588Z,79.01
2022-09-18T10:45:22.958Z,79.49
2022-09-18T10:46:29.670Z,80.36
2022-09-18T10:47:36.302Z,81.64
2022-09-18T10:48:44.024Z,82.91
2022-09-18T10:49:51.819Z,84.67
2022-09-18T10:50:57.290Z,84.83
2022-09-18T10:52:24.498Z,86.33
2022-09-18T10:53:32.761Z,87.45
2022-09-18T10:54:58.226Z,88.14
2022-09-18T10:56:05.956Z,89.46
2022-09-18T10:57:26.507Z,89.76
2022-09-18T10:58:32.713Z,90.63
2022-09-18T10:59:35.163Z,91.03
2022-09-18T11:00:50.158Z,91.44
2022-09-18T11:01:56.293Z,91.49
2022-09-18T11:03:07.683Z,91.58
2022-09-18T11:04:16.978Z,92.20
2022-09-18T11:05:22.097Z,92.78
2022-09-18T11:06:30.130Z,93.05
2022-09-18T11:07:39.928Z,92.88
2022-09-18T11:08:46.390Z,93.08
2022-09-18T11:09:49.664Z,89.07
2022-09-18T11:10:56.945Z,90.49
2022-09-18T11:12:01.152Z,90.84
2022-09-18T11:13:07.099Z,90.43
2022-09-18T11:14:23.206Z,89.45
2022-09-18T11:15:36.502Z,89.07
2022-09-18T11:16:44.094Z,89.51
2022-09-18T11:17:51.340Z,88.71
2022-09-18T11:19:12.761Z,89.15
2022-09-18T11:20:24.875Z,88.43
2022-09-18T11:21:43.763Z,88.88
2022-09-18T11:22:47.360Z,87.66
2022-09-18T11:24:04.155Z,88.34
2022-09-18T11:25:17.675Z,87.66
2022-09-18T11:26:28.784Z,86.81
2022-09-18T11:27:45.963Z,86.79
2022-09-18T11:29:01.258Z,86.93
2022-09-18T11:30:15.053Z,87.21
2022-09-18T11:31:22.498Z,86.49
2022-09-18T11:32:31.877Z,83.45
2022-09-18T11:33:44.357Z,83.94
2022-09-18T11:34:51.583Z,80.04
2022-09-18T11:36:00.119Z,76.63
2022-09-18T11:37:08.841Z,75.85
2022-09-18T11:38:19.384Z,74.80
2022-09-18T11:39:28.191Z,75.16
2022-09-18T11:40:33.625Z,74.00
2022-09-18T11:41:38.704Z,73.62
2022-09-18T11:42:42.445Z,73.61
2022-09-18T11:43:46.834Z,72.89
2022-09-18T11:44:50.447Z,73.80
2022-09-18T11:46:01.556Z,73.64
2022-09-18T11:47:29.918Z,72.95
2022-09-18T11:48:39.922Z,73.64
2022-09-18T11:49:46.075Z,74.59
2022-09-18T11:50:55.815Z,74.63
2022-09-18T11:52:01.466Z,75.73
2022-09-18T11:53:16.395Z,77.09
2022-09-18T11:54:28.365Z,77.57
2022-09-18T11:55:35.233Z,78.87
2022-09-18T11:56:42.497Z,79.94
2022-09-18T11:57:56.193Z,80.62
2022-09-18T11:59:04.062Z,81.63
2022-09-18T12:00:15.505Z,81.95
2022-09-18T12:01:44.628Z,83.25
2022-09-18T12:03:01.118Z,83.70
2022-09-18T12:04:16.219Z,84.64
2022-09-18T12:05:24.597Z,85.22
2022-09-18T12:06:37.377Z,85.25
2022-09-18T12:07:44.275Z,85.36
2022-09-18T12:08:53.800Z,85.69
2022-09-18T12:10:06.249Z,85.61
2022-09-18T12:11:14.036Z,85.81
2022-09-18T12:12:21.823Z,86.17
2022-09-18T12:13:47.051Z,86.28
2022-09-18T12:14:57.013Z,86.00
2022-09-18T12:16:05.487Z,86.21
2022-09-18T12:17:16.899Z,85.92
2022-09-18T12:18:25.695Z,84.79
2022-09-18T12:19:34.319Z,84.70
2022-09-18T12:20:41.537Z,84.75
2022-09-18T12:22:00.122Z,82.47
2022-09-18T12:23:04.826Z,83.09
2022-09-18T12:24:13.819Z,82.67
2022-09-18T12:25:18.047Z,82.18
2022-09-18T12:26:54.183Z,81.87
2022-09-18T12:28:07.459Z,81.67
2022-09-18T12:29:21.709Z,80.30
2022-09-18T12:30:35.757Z,79.60
2022-09-18T12:31:51.369Z,80.22
2022-09-18T12:33:14.462Z,80.19
2022-09-18T12:34:25.856Z,80.29
2022-09-18T12:35:39.086Z,81.53
2022-09-18T12:36:56.208Z,81.36
2022-09-18T12:38:11.358Z,81.66
2022-09-18T12:39:28.196Z,82.22
2022-09-18T12:41:02.313Z,83.25
2022-09-18T12:42:15.182Z,83.44
2022-09-18T12:43:38.223Z,84.04
2022-09-18T12:44:57.445Z,84.29
2022-09-18T12:46:12.750Z,84.46
2022-09-18T12:47:36.153Z,84.25
2022-09-18T12:48:51.531Z,82.89
2022-09-18T12:50:16.876Z,83.56
2022-09-18T12:51:39.313Z,83.85
2022-09-18T12:53:08.595Z,83.62
2022-09-18T12:54:32.375Z,84.23
2022-09-18T12:55:43.888Z,84.31
2022-09-18T12:57:02.021Z,84.34
2022-09-18T12:58:21.179Z,84.40
2022-09-18T12:59:43.746Z,84.74
2022-09-18T13:00:54.365Z,85.53
2022-09-18T13:02:42.750Z,85.92
2022-09-18T13:03:54.314Z,86.71
2022-09-18T13:07:18.131Z,88.08
2022-09-18T13:08:31.196Z,88.46
2022-09-18T13:09:41.527Z,88.76
2022-09-18T13:10:47.099Z,89.09
2022-09-18T13:11:54.033Z,89.41
2022-09-18T13:13:03.680Z,88.97
2022-09-18T13:14:12.831Z,89.20
2022-09-18T13:15:20.118Z,89.47
2022-09-18T13:16:28.631Z,89.31
2022-09-18T13:17:37.526Z,89.45
2022-09-18T13:18:46.816Z,89.56
2022-09-18T13:19:53.792Z,89.60
2022-09-18T13:21:00.844Z,90.00
2022-09-18T13:22:07.086Z,90.04
2022-09-18T13:23:17.034Z,90.20
2022-09-18T13:24:24.069Z,90.20
2022-09-18T13:25:30.966Z,89.83
2022-09-18T13:26:38.597Z,90.12
2022-09-18T13:27:42.100Z,89.64
2022-09-18T13:28:45.588Z,89.25
2022-09-18T13:29:56.922Z,89.57
2022-09-18T13:31:24.960Z,89.30
2022-09-18T13:32:40.943Z,89.62
2022-09-18T13:33:51.091Z,89.75
2022-09-18T13:34:56.855Z,89.92
2022-09-18T13:36:00.634Z,90.31
2022-09-18T13:37:06.521Z,90.34
2022-09-18T13:38:19.656Z,90.54
2022-09-18T13:39:27.060Z,90.64
2022-09-18T13:40:35.946Z,90.68
2022-09-18T13:41:45.225Z,90.73
2022-09-18T13:42:47.511Z,90.84
2022-09-18T13:43:55.426Z,90.86
2022-09-18T13:45:05.628Z,91.26
2022-09-18T13:46:12.128Z,91.55
2022-09-18T13:47:16.157Z,91.68
2022-09-18T13:48:28.094Z,92.02
2022-09-18T13:49:33.393Z,92.29
2022-09-18T13:50:37.102Z,92.41
2022-09-18T13:51:42.039Z,92.86
2022-09-18T13:52:47.495Z,93.08
2022-09-18T13:54:18.964Z,92.70
2022-09-18T13:55:48.444Z,93.35
2022-09-18T13:57:20.640Z,93.38
2022-09-18T13:58:36.517Z,93.55
2022-09-18T13:59:49.480Z,93.81
2022-09-18T14:00:55.821Z,93.83
2022-09-18T14:02:03.543Z,93.73
2022-09-18T14:03:35.723Z,93.96
2022-09-18T14:05:30.127Z,93.28
2022-09-18T14:06:45.192Z,93.33
2022-09-18T14:08:00.246Z,93.75
2022-09-18T14:09:16.065Z,93.92
2022-09-18T14:10:25.248Z,94.56
2022-09-18T14:11:29.904Z,95.07
2022-09-18T14:12:34.388Z,95.43
2022-09-18T14:13:48.935Z,95.44
2022-09-18T14:15:01.520Z,95.90
2022-09-18T14:16:10.161Z,96.42
2022-09-18T14:17:14.189Z,97.17
2022-09-18T14:18:24.547Z,96.97
2022-09-18T14:19:32.372Z,97.60
2022-09-18T14:20:35.210Z,97.85
2022-09-18T14:21:41.877Z,97.90
2022-09-18T14:22:44.114Z,98.03
2022-09-18T14:24:32.106Z,98.32
2022-09-18T14:25:46.347Z,98.97
2022-09-18T14:27:29.725Z,98.79
2022-09-18T14:28:33.574Z,98.66
2022-09-18T14:29:35.733Z,98.26
2022-09-18T14:30:38.851Z,98.46
2022-09-18T14:31:47.098Z,98.21
2022-09-18T14:33:01.768Z,98.37
2022-09-18T14:34:12.517Z,98.86
2022-09-18T14:35:22.997Z,97.91
2022-09-18T14:36:26.097Z,98.37
2022-09-18T14:37:30.632Z,97.60
2022-09-18T14:38:36.270Z,97.93
2022-09-18T14:39:38.472Z,97.71
2022-09-18T14:40:41.853Z,97.65
2022-09-18T14:41:44.921Z,97.43
2022-09-18T14:42:49.879Z,97.23
2022-09-18T14:43:57.126Z,97.15
2022-09-18T14:45:20.553Z,96.95
2022-09-18T14:46:25.284Z,96.55
2022-09-18T14:47:27.598Z,96.16
2022-09-18T14:48:36.153Z,96.35
2022-09-18T14:49:43.645Z,95.87